Time;durP1;ratioP1;P1;durP2;ratioP2;P2;SDS_P1;SDS_P2;PMS_P1;PMS_P2;Temp;Humidity;BMP_temperature;BMP_pressure;BME280_temperature;BME280_humidity;BME280_pressure;Samples;Min_cycle;Max_cycle;Signal;HPM_P1;HPM_P2
2024/04/12 00:01:39;;;;;;;13.18;3.30;;;15.00;81.40;;;;;;5434819;26;19999;-57
2024/04/12 00:04:08;;;;;;;9.07;3.53;;;14.90;81.40;;;;;;5461948;26;20027;-57
2024/04/12 00:06:33;;;;;;;12.75;3.45;;;14.90;81.50;;;;;;5464584;26;19998;-58
2024/04/12 00:08:59;;;;;;;8.18;2.92;;;14.90;81.60;;;;;;5464370;26;20001;-57
2024/04/12 00:11:25;;;;;;;10.02;3.25;;;14.90;81.60;;;;;;5464176;26;20075;-57
2024/04/12 00:13:53;;;;;;;10.43;3.20;;;14.80;81.70;;;;;;5462464;26;20282;-57
2024/04/12 00:16:24;;;;;;;13.07;3.05;;;14.80;81.80;;;;;;5462516;26;20007;-57
2024/04/12 00:21:56;;;;;;;7.10;2.80;;;14.80;81.90;;;;;;5403862;26;20167;-60
2024/04/12 00:24:26;;;;;;;12.68;3.33;;;14.80;82.00;;;;;;5448552;26;20401;-60
2024/04/12 00:26:53;;;;;;;13.68;3.45;;;14.70;82.00;;;;;;5433442;26;19999;-60
2024/04/12 00:29:25;;;;;;;7.90;2.97;;;14.70;82.00;;;;;;5432714;26;20319;-60
2024/04/12 00:31:54;;;;;;;5.50;2.90;;;14.70;82.10;;;;;;5433716;26;20053;-60
2024/04/12 00:34:26;;;;;;;9.40;2.95;;;14.60;82.10;;;;;;5462195;26;19995;-60
2024/04/12 00:36:59;;;;;;;7.43;2.92;;;14.70;82.20;;;;;;5464200;26;20027;-60
2024/04/12 00:39:35;;;;;;;9.10;2.90;;;14.60;82.20;;;;;;5464107;26;19994;-60
2024/04/12 00:42:07;;;;;;;10.38;2.88;;;14.60;82.30;;;;;;5462403;26;20002;-60
2024/04/12 00:44:40;;;;;;;7.50;3.00;;;14.60;82.40;;;;;;5462027;26;20085;-60
2024/04/12 00:47:15;;;;;;;9.07;3.05;;;14.60;82.40;;;;;;5462157;26;20017;-60
2024/04/12 00:49:49;;;;;;;7.73;2.87;;;14.50;82.40;;;;;;5463661;26;20099;-60
2024/04/12 00:52:35;;;;;;;7.68;2.83;;;14.50;82.50;;;;;;5461798;26;20002;-60
2024/04/12 00:55:08;;;;;;;11.18;2.85;;;14.50;82.50;;;;;;5436876;26;20055;-60
2024/04/12 00:57:35;;;;;;;4.78;2.60;;;14.50;82.50;;;;;;5462013;26;19999;-60
2024/04/12 01:00:12;;;;;;;9.15;2.78;;;14.40;82.50;;;;;;5431959;26;20094;-60
2024/04/12 01:02:41;;;;;;;9.43;3.10;;;14.40;82.60;;;;;;5461905;26;20017;-60
2024/04/12 01:05:14;;;;;;;6.38;2.72;;;14.40;82.70;;;;;;5463675;26;19998;-60
2024/04/12 01:07:48;;;;;;;6.47;2.63;;;14.40;82.70;;;;;;5432996;26;20306;-60
2024/04/12 01:10:14;;;;;;;4.95;2.40;;;14.40;82.70;;;;;;5433526;26;20079;-60
2024/04/12 01:12:43;;;;;;;8.48;3.03;;;14.40;82.70;;;;;;5461704;26;20002;-60
2024/04/12 01:15:08;;;;;;;10.35;2.83;;;14.40;82.80;;;;;;5431431;26;20287;-60
2024/04/12 01:17:37;;;;;;;7.47;2.92;;;14.30;82.80;;;;;;5461397;26;20014;-60
2024/04/12 01:20:06;;;;;;;10.18;2.75;;;14.30;82.90;;;;;;5461292;26;19999;-60
2024/04/12 01:22:32;;;;;;;7.88;2.70;;;14.30;82.90;;;;;;5461208;26;20034;-60
2024/04/12 01:24:58;;;;;;;7.70;2.60;;;14.30;83.00;;;;;;5463183;26;20002;-60
2024/04/12 01:27:24;;;;;;;6.38;3.13;;;14.20;83.00;;;;;;5461325;26;20005;-60
2024/04/12 01:29:50;;;;;;;8.13;3.25;;;14.20;83.10;;;;;;5461186;26;19994;-60
2024/04/12 01:32:17;;;;;;;7.22;2.75;;;14.20;83.10;;;;;;5461056;26;19995;-60
2024/04/12 01:34:50;;;;;;;4.20;2.55;;;14.20;83.20;;;;;;5431659;26;20010;-60
2024/04/12 01:37:20;;;;;;;10.48;2.58;;;14.20;83.30;;;;;;5433204;26;19995;-60
2024/04/12 01:39:47;;;;;;;8.52;2.40;;;14.10;83.20;;;;;;5463053;26;20053;-60
2024/04/12 01:42:13;;;;;;;7.88;2.40;;;14.10;83.40;;;;;;5461114;26;20039;-60
2024/04/12 01:44:42;;;;;;;4.63;2.50;;;14.10;83.40;;;;;;5461002;26;20074;-60
2024/04/12 01:47:08;;;;;;;9.27;3.08;;;14.10;83.50;;;;;;5462919;26;20006;-60
2024/04/12 01:49:34;;;;;;;5.57;2.30;;;14.00;83.50;;;;;;5430742;26;20006;-60
2024/04/12 01:52:00;;;;;;;7.22;2.85;;;14.00;83.60;;;;;;5460608;26;20010;-60
2024/04/12 01:54:32;;;;;;;8.63;2.72;;;14.10;83.70;;;;;;5431151;26;20313;-60
2024/04/12 01:57:03;;;;;;;6.85;2.50;;;14.00;83.70;;;;;;5432682;26;20013;-60
2024/04/12 01:59:31;;;;;;;4.22;2.58;;;14.00;83.70;;;;;;5432333;26;20003;-60
2024/04/12 02:01:57;;;;;;;6.20;2.55;;;14.00;83.80;;;;;;5431622;26;19999;-60
2024/04/12 02:04:24;;;;;;;4.82;2.65;;;14.00;83.80;;;;;;5462653;26;20006;-60
2024/04/12 02:06:51;;;;;;;4.75;2.53;;;14.00;83.80;;;;;;5460809;26;20003;-60
2024/04/12 02:09:19;;;;;;;6.35;2.50;;;13.90;83.90;;;;;;5401642;26;20010;-60
2024/04/12 02:11:45;;;;;;;5.28;2.90;;;13.90;83.90;;;;;;5431467;26;20013;-60
2024/04/12 02:14:12;;;;;;;4.40;2.28;;;13.90;84.00;;;;;;5460575;26;20035;-60
2024/04/12 02:16:41;;;;;;;5.47;2.28;;;13.90;84.00;;;;;;5431141;26;20076;-60
2024/04/12 02:19:10;;;;;;;4.55;2.47;;;13.90;84.00;;;;;;5431555;26;20103;-60
2024/04/12 02:21:38;;;;;;;7.22;2.97;;;13.90;84.00;;;;;;5462438;26;19998;-60
2024/04/12 02:24:10;;;;;;;7.05;2.40;;;13.80;84.00;;;;;;5460337;26;20007;-60
2024/04/12 02:26:37;;;;;;;5.07;2.83;;;13.80;84.00;;;;;;5462965;26;19999;-60
2024/04/12 02:29:04;;;;;;;4.97;2.63;;;13.80;84.10;;;;;;5463862;26;19999;-60
2024/04/12 02:31:31;;;;;;;4.65;2.33;;;13.80;84.20;;;;;;5464029;26;20002;-60
2024/04/12 02:33:58;;;;;;;3.85;2.63;;;13.70;84.20;;;;;;5463893;26;20011;-60
2024/04/12 02:36:25;;;;;;;5.35;2.58;;;13.70;84.30;;;;;;5433615;26;20003;-60
2024/04/12 02:38:51;;;;;;;5.70;2.53;;;13.80;84.40;;;;;;5463771;26;20032;-60
2024/04/12 02:41:16;;;;;;;7.25;2.30;;;13.70;84.30;;;;;;5465628;26;19990;-60
2024/04/12 02:43:49;;;;;;;5.80;2.90;;;13.70;84.40;;;;;;5463635;26;19991;-57
2024/04/12 02:46:14;;;;;;;3.83;2.10;;;13.60;84.40;;;;;;5463977;26;20006;-57
2024/04/12 02:48:43;;;;;;;7.10;2.78;;;13.70;84.50;;;;;;5463480;26;19999;-57
2024/04/12 02:51:12;;;;;;;6.55;2.42;;;13.60;84.50;;;;;;5405300;26;20058;-57
2024/04/12 02:53:38;;;;;;;8.07;2.63;;;13.60;84.50;;;;;;5465580;26;20001;-57
2024/04/12 02:56:10;;;;;;;6.43;2.90;;;13.60;84.60;;;;;;5465792;26;19995;-57
2024/04/12 02:58:40;;;;;;;5.40;2.40;;;13.60;84.70;;;;;;5463412;26;20021;-57
2024/04/12 03:01:07;;;;;;;7.65;2.30;;;13.60;84.90;;;;;;5434534;26;20007;-57
2024/04/12 03:03:39;;;;;;;4.80;2.38;;;13.60;84.90;;;;;;5460526;26;19998;-57
2024/04/12 03:06:09;;;;;;;6.50;2.20;;;13.50;84.90;;;;;;5433266;26;20011;-57
2024/04/12 03:08:36;;;;;;;5.10;2.88;;;13.50;85.00;;;;;;5476793;26;20026;-57
2024/04/12 03:11:21;;;;;;;5.63;2.58;;;13.50;85.00;;;;;;5461998;26;20003;-57
2024/04/12 03:13:54;;;;;;;5.20;2.60;;;13.50;85.10;;;;;;5462218;26;20040;-57
2024/04/12 03:16:20;;;;;;;4.85;2.50;;;13.40;85.10;;;;;;5449983;26;20222;-57
2024/04/12 03:18:48;;;;;;;6.97;2.45;;;13.40;85.10;;;;;;5493763;26;20052;-60
2024/04/12 03:21:17;;;;;;;5.18;2.50;;;13.40;85.20;;;;;;5463223;26;19991;-60
2024/04/12 03:23:46;;;;;;;5.57;2.40;;;13.40;85.30;;;;;;5485478;26;20000;-60
2024/04/12 03:26:12;;;;;;;5.32;2.80;;;13.40;85.30;;;;;;5429175;26;20406;-60
2024/04/12 03:28:38;;;;;;;4.68;2.40;;;13.30;85.30;;;;;;5428995;26;19999;-60
2024/04/12 03:31:07;;;;;;;4.57;2.58;;;13.30;85.30;;;;;;5457032;26;19999;-60
2024/04/12 03:33:42;;;;;;;6.03;2.65;;;13.30;85.30;;;;;;5428511;26;20007;-60
2024/04/12 03:41:46;;;;;;;5.57;2.40;;;13.30;85.40;;;;;;5427347;26;20077;-60
2024/04/12 03:44:17;;;;;;;4.68;2.35;;;13.30;85.40;;;;;;5426667;26;20019;-60
2024/04/12 03:46:49;;;;;;;4.32;2.58;;;13.20;85.40;;;;;;5398772;26;20003;-60
2024/04/12 03:49:16;;;;;;;8.60;2.55;;;13.20;85.40;;;;;;5428526;26;20031;-60
2024/04/12 03:51:44;;;;;;;6.53;2.58;;;13.20;85.50;;;;;;5426702;26;19996;-60
2024/04/12 03:54:17;;;;;;;4.25;2.60;;;13.20;85.60;;;;;;5426675;26;20007;-60
2024/04/12 03:56:44;;;;;;;5.80;2.25;;;13.20;85.60;;;;;;5426916;26;19995;-60
2024/04/12 03:59:09;;;;;;;5.68;2.60;;;13.20;85.80;;;;;;5426689;26;19995;-60
2024/04/12 04:01:36;;;;;;;6.32;2.67;;;13.10;85.70;;;;;;5426543;26;20007;-60
2024/04/12 04:04:10;;;;;;;4.68;2.17;;;13.20;85.80;;;;;;5426490;26;20422;-60
2024/04/12 04:06:36;;;;;;;6.70;2.53;;;13.10;85.80;;;;;;5399165;26;20201;-60
2024/04/12 04:09:05;;;;;;;3.03;2.33;;;13.10;85.80;;;;;;5428199;26;20014;-60
2024/04/12 04:11:34;;;;;;;4.70;2.40;;;13.10;86.00;;;;;;5428469;26;20010;-60
2024/04/12 04:14:08;;;;;;;3.97;2.47;;;13.10;86.10;;;;;;5428269;26;20005;-60
2024/04/12 04:16:36;;;;;;;4.88;2.25;;;13.10;86.10;;;;;;5426579;26;19992;-60
2024/04/12 04:19:06;;;;;;;11.93;2.38;;;13.10;86.20;;;;;;5397309;26;20019;-60
2024/04/12 04:21:33;;;;;;;5.70;2.83;;;13.10;86.30;;;;;;5397194;26;20010;-60
2024/04/12 04:24:08;;;;;;;5.30;2.55;;;13.10;86.30;;;;;;5396912;26;20083;-60
2024/04/12 04:26:37;;;;;;;5.72;2.67;;;13.10;86.40;;;;;;5428204;26;20115;-60
2024/04/12 04:29:09;;;;;;;5.57;2.70;;;13.10;86.40;;;;;;5428101;26;19999;-60
2024/04/12 04:31:44;;;;;;;8.65;2.60;;;13.10;86.50;;;;;;5426699;26;19996;-60
2024/04/12 04:34:13;;;;;;;4.65;2.70;;;13.10;86.60;;;;;;5426518;26;20123;-60
2024/04/12 04:36:42;;;;;;;5.03;2.35;;;13.00;86.60;;;;;;5426294;26;20006;-59
2024/04/12 04:39:08;;;;;;;9.10;3.25;;;13.10;86.70;;;;;;5426294;26;20019;-60
2024/04/12 04:41:33;;;;;;;10.27;2.85;;;13.10;86.80;;;;;;5426234;26;19999;-60
2024/04/12 04:43:59;;;;;;;16.13;3.45;;;13.00;86.80;;;;;;5427911;26;20122;-60
2024/04/12 04:46:26;;;;;;;19.25;3.75;;;13.10;86.90;;;;;;5426203;26;20015;-60
2024/04/12 04:48:53;;;;;;;16.92;3.72;;;13.00;86.90;;;;;;5396539;26;20018;-60
2024/04/12 04:51:19;;;;;;;11.30;3.53;;;13.00;87.00;;;;;;5396600;26;19996;-60
2024/04/12 04:53:44;;;;;;;17.05;3.60;;;13.00;87.00;;;;;;5427766;26;20494;-60
2024/04/12 04:56:12;;;;;;;18.90;4.35;;;13.00;87.00;;;;;;5426031;26;20037;-60
2024/04/12 04:58:41;;;;;;;13.02;3.58;;;13.00;87.10;;;;;;5396997;26;20061;-60
2024/04/12 05:01:11;;;;;;;16.30;4.10;;;13.00;87.10;;;;;;5428003;26;20049;-60
2024/04/12 05:03:37;;;;;;;17.77;3.90;;;13.00;87.20;;;;;;5397279;26;20046;-60
2024/04/12 05:06:06;;;;;;;21.13;4.18;;;13.00;87.20;;;;;;5425822;26;20072;-60
2024/04/12 05:08:35;;;;;;;14.60;3.90;;;12.90;87.30;;;;;;5425521;26;20003;-60
2024/04/12 05:11:05;;;;;;;22.25;4.60;;;12.90;87.30;;;;;;5425831;26;20122;-60
2024/04/12 05:13:37;;;;;;;18.35;4.05;;;12.90;87.30;;;;;;5427490;26;20011;-60
2024/04/12 05:16:09;;;;;;;21.83;4.95;;;13.00;87.40;;;;;;5425827;26;20003;-57
2024/04/12 05:18:36;;;;;;;17.17;4.68;;;12.90;87.30;;;;;;5425630;26;20070;-57
2024/04/12 05:21:03;;;;;;;21.75;4.60;;;12.90;87.40;;;;;;5425437;26;20005;-57
2024/04/12 05:23:29;;;;;;;21.35;4.75;;;12.90;87.40;;;;;;5425413;26;20003;-57
2024/04/12 05:25:54;;;;;;;23.60;4.97;;;12.90;87.50;;;;;;5425066;26;20002;-60
2024/04/12 05:28:20;;;;;;;22.75;5.10;;;12.90;87.60;;;;;;5428060;26;19999;-60
2024/04/12 05:30:49;;;;;;;32.67;5.65;;;12.90;88.00;;;;;;5396290;26;20323;-60
2024/04/12 05:33:17;;;;;;;32.20;5.10;;;12.90;88.10;;;;;;5427158;26;20013;-60
2024/04/12 05:35:43;;;;;;;166.05;18.17;;;12.90;88.00;;;;;;5425256;26;19995;-60
2024/04/12 05:38:09;;;;;;;82.00;10.85;;;12.80;88.30;;;;;;5424513;26;19996;-60
2024/04/12 05:40:41;;;;;;;65.85;7.97;;;12.90;88.40;;;;;;5395431;26;20002;-60
2024/04/12 05:43:13;;;;;;;33.55;7.03;;;12.90;88.40;;;;;;5396186;26;20291;-60
2024/04/12 05:45:49;;;;;;;47.83;7.30;;;12.90;88.50;;;;;;5424947;26;20030;-60
2024/04/12 05:48:19;;;;;;;51.22;8.68;;;12.80;88.40;;;;;;5425275;26;20003;-60
2024/04/12 05:50:48;;;;;;;49.28;9.13;;;12.80;88.40;;;;;;5395470;26;20000;-60
2024/04/12 05:53:18;;;;;;;55.53;7.68;;;12.90;88.40;;;;;;5425216;26;20003;-60
2024/04/12 05:55:44;;;;;;;42.20;8.02;;;12.80;88.30;;;;;;5425085;26;19999;-58
2024/04/12 05:58:23;;;;;;;47.58;9.88;;;12.80;88.30;;;;;;5424625;26;20081;-57
2024/04/12 06:00:50;;;;;;;55.20;8.55;;;12.80;88.30;;;;;;5396426;26;20103;-57
2024/04/12 06:03:16;;;;;;;42.65;8.93;;;12.80;88.40;;;;;;5423875;26;20014;-57
2024/04/12 06:05:41;;;;;;;45.15;8.05;;;12.80;88.50;;;;;;5424277;26;20000;-58
2024/04/12 06:08:07;;;;;;;36.83;7.50;;;12.80;88.60;;;;;;5424639;26;20137;-57
2024/04/12 06:10:33;;;;;;;35.45;7.57;;;12.80;88.50;;;;;;5424478;26;20007;-60
2024/04/12 06:13:06;;;;;;;41.28;8.02;;;12.80;88.60;;;;;;5456758;26;19996;-60
2024/04/12 06:15:36;;;;;;;41.28;7.95;;;12.80;88.70;;;;;;5426046;26;20034;-60
2024/04/12 06:18:05;;;;;;;45.70;8.73;;;12.80;88.70;;;;;;5424524;26;20020;-60
2024/04/12 06:20:31;;;;;;;34.70;8.05;;;12.80;88.60;;;;;;5424490;26;20003;-57
2024/04/12 06:23:06;;;;;;;29.70;7.90;;;12.80;88.80;;;;;;5426310;26;19996;-57
2024/04/12 06:25:58;;;;;;;37.55;8.32;;;12.80;88.80;;;;;;5424277;26;20006;-60
2024/04/12 06:28:24;;;;;;;44.38;7.32;;;12.80;88.80;;;;;;5455585;26;20038;-59
2024/04/12 06:30:52;;;;;;;40.60;7.68;;;12.80;88.80;;;;;;5471777;26;20466;-60
2024/04/12 06:33:22;;;;;;;34.97;7.63;;;12.80;88.80;;;;;;5458702;26;20042;-59
2024/04/12 06:36:04;;;;;;;81.10;12.77;;;12.80;88.90;;;;;;5459879;26;19994;-60
2024/04/12 06:38:31;;;;;;;56.33;9.60;;;12.80;89.00;;;;;;5457648;26;20422;-59
2024/04/12 06:40:57;;;;;;;57.95;9.35;;;12.80;89.30;;;;;;5457570;26;19995;-59
2024/04/12 06:43:23;;;;;;;41.60;9.50;;;12.80;89.50;;;;;;5429291;26;20275;-60
2024/04/12 06:46:11;;;;;;;42.20;8.35;;;12.80;89.40;;;;;;5459368;26;20309;-60
2024/04/12 06:48:40;;;;;;;34.42;8.02;;;12.80;89.50;;;;;;5453799;26;20075;-60
2024/04/12 06:51:16;;;;;;;35.80;8.40;;;12.80;89.20;;;;;;5414210;26;20003;-57
2024/04/12 06:53:44;;;;;;;45.17;8.80;;;12.80;89.10;;;;;;5458049;26;20014;-57
2024/04/12 06:56:17;;;;;;;36.88;8.13;;;12.80;89.30;;;;;;5425764;26;19999;-57
2024/04/12 06:58:46;;;;;;;43.25;8.15;;;12.80;89.40;;;;;;5458697;26;20009;-58
2024/04/12 07:01:12;;;;;;;48.15;9.18;;;12.90;89.50;;;;;;5400023;26;19999;-58
2024/04/12 07:03:45;;;;;;;53.20;8.43;;;12.90;89.50;;;;;;5422711;26;19996;-58
2024/04/12 07:06:14;;;;;;;112.90;14.23;;;12.90;89.30;;;;;;5458146;26;20054;-58
2024/04/12 07:08:49;;;;;;;74.75;11.35;;;12.90;89.50;;;;;;5398034;26;20025;-58
2024/04/12 07:11:24;;;;;;;;;;;12.90;89.40;;;;;;5460856;26;20003;-58
2024/04/12 07:13:50;;;;;;;74.10;9.90;;;12.90;89.70;;;;;;5459466;26;19924;-57
2024/04/12 07:16:18;;;;;;;67.32;11.50;;;12.90;89.90;;;;;;5462536;26;20125;-58
2024/04/12 07:18:44;;;;;;;59.83;10.27;;;12.90;90.00;;;;;;5432785;26;20014;-58
2024/04/12 07:21:15;;;;;;;82.20;12.98;;;13.00;90.20;;;;;;5416735;26;19995;-58
2024/04/12 07:23:51;;;;;;;88.20;12.30;;;13.00;90.20;;;;;;5445757;26;20046;-58
2024/04/12 07:26:29;;;;;;;85.88;11.82;;;13.00;90.20;;;;;;5439433;26;19995;-58
2024/04/12 07:28:59;;;;;;;108.25;14.88;;;13.00;90.20;;;;;;5440629;26;20000;-58
2024/04/12 07:31:34;;;;;;;108.25;14.38;;;13.00;90.30;;;;;;5452008;26;20044;-58
2024/04/12 07:34:01;;;;;;;105.38;13.70;;;13.00;90.50;;;;;;5425226;26;20018;-57
2024/04/12 07:36:30;;;;;;;101.88;15.10;;;13.10;90.60;;;;;;5464659;26;20057;-60
2024/04/12 07:39:07;;;;;;;104.28;13.35;;;13.10;90.70;;;;;;5417408;26;20114;-57
2024/04/12 07:41:45;;;;;;;106.20;14.52;;;13.10;90.40;;;;;;5440001;26;20018;-57
2024/04/12 07:44:14;;;;;;;228.27;24.40;;;13.10;90.50;;;;;;5454503;26;20113;-58
2024/04/12 07:46:48;;;;;;;101.03;14.05;;;13.10;90.60;;;;;;5466795;26;20067;-58
2024/04/12 07:49:17;;;;;;;236.55;24.40;;;13.10;90.30;;;;;;5452514;26;20080;-60
2024/04/12 07:51:45;;;;;;;153.48;19.17;;;13.10;90.30;;;;;;5426397;26;20038;-58
2024/04/12 07:54:15;;;;;;;229.30;23.77;;;13.10;90.40;;;;;;5457066;26;20358;-57
2024/04/12 07:56:43;;;;;;;194.75;19.33;;;13.20;90.70;;;;;;5469314;26;20051;-57
2024/04/12 07:59:25;;;;;;;137.43;17.13;;;13.20;90.60;;;;;;5430887;26;20053;-59
2024/04/12 08:01:57;;;;;;;158.93;17.83;;;13.20;90.60;;;;;;5405697;26;19994;-60
2024/04/12 08:04:23;;;;;;;158.70;18.08;;;13.20;90.60;;;;;;5460073;26;20067;-60
2024/04/12 08:09:22;;;;;;;148.63;18.67;;;13.30;90.50;;;;;;5458908;26;20007;-60
2024/04/12 08:11:59;;;;;;;141.90;19.60;;;13.30;90.60;;;;;;5463127;26;20426;-60
2024/04/12 08:14:26;;;;;;;206.13;23.98;;;13.40;90.70;;;;;;5430368;26;20017;-60
2024/04/12 08:16:53;;;;;;;183.63;22.33;;;13.40;90.70;;;;;;5425100;26;19996;-60
2024/04/12 08:19:22;;;;;;;172.60;20.48;;;13.40;90.80;;;;;;5468583;26;20579;-60
2024/04/12 08:21:49;;;;;;;168.30;20.33;;;13.40;90.70;;;;;;5429089;26;20071;-60
2024/04/12 08:24:15;;;;;;;177.57;21.10;;;13.40;90.70;;;;;;5428839;26;20010;-59
2024/04/12 08:26:46;;;;;;;177.15;20.98;;;13.40;90.80;;;;;;5430880;26;19994;-60
2024/04/12 08:29:20;;;;;;;260.42;28.63;;;13.40;90.80;;;;;;5437119;26;20004;-60
2024/04/12 08:32:13;;;;;;;210.38;22.58;;;13.40;90.80;;;;;;5448295;26;19999;-59
2024/04/12 08:34:45;;;;;;;177.95;19.30;;;13.50;90.90;;;;;;5426796;26;19994;-60
2024/04/12 08:37:14;;;;;;;169.40;19.45;;;13.50;90.90;;;;;;5435809;26;20054;-60
2024/04/12 08:39:46;;;;;;;147.88;20.48;;;13.50;90.70;;;;;;5395423;26;20024;-60
2024/04/12 08:42:15;;;;;;;184.85;19.50;;;13.50;90.70;;;;;;5447121;26;19996;-60
2024/04/12 08:44:45;;;;;;;138.25;17.88;;;13.50;90.70;;;;;;5431037;26;20078;-60
2024/04/12 08:47:28;;;;;;;142.50;20.02;;;13.60;90.70;;;;;;5456781;26;20014;-60
2024/04/12 08:50:03;;;;;;;173.32;20.23;;;13.50;90.60;;;;;;5442833;26;19998;-60
2024/04/12 08:52:48;;;;;;;168.52;21.70;;;13.70;90.70;;;;;;5456965;26;19998;-59
2024/04/12 08:55:14;;;;;;;152.52;19.67;;;13.60;90.70;;;;;;5429840;26;19995;-59
2024/04/12 08:57:44;;;;;;;140.80;19.88;;;13.60;90.80;;;;;;5459948;26;20010;-60
2024/04/12 09:00:17;;;;;;;179.73;19.40;;;13.60;90.70;;;;;;5424817;26;20023;-60
2024/04/12 09:02:51;;;;;;;164.52;20.30;;;13.60;90.70;;;;;;5446386;26;20017;-60
2024/04/12 09:05:22;;;;;;;161.88;20.77;;;13.60;90.60;;;;;;5425193;26;20023;-60
2024/04/12 09:08:02;;;;;;;166.25;20.65;;;13.60;90.70;;;;;;5414904;26;20376;-60
2024/04/12 09:10:36;;;;;;;164.63;19.75;;;13.70;90.80;;;;;;5424845;26;20081;-60
2024/04/12 09:13:08;;;;;;;148.50;19.20;;;13.70;90.90;;;;;;5426141;26;20018;-60
2024/04/12 09:15:42;;;;;;;160.25;20.50;;;13.70;90.80;;;;;;5425102;26;20295;-60
2024/04/12 09:18:14;;;;;;;151.70;19.02;;;13.70;90.80;;;;;;5426151;26;19995;-60
2024/04/12 09:20:40;;;;;;;172.95;20.00;;;13.80;90.90;;;;;;5425631;26;20017;-60
2024/04/12 09:23:15;;;;;;;180.85;19.58;;;13.80;90.90;;;;;;5440123;26;20014;-60
2024/04/12 09:25:54;;;;;;;181.73;22.60;;;13.80;91.00;;;;;;5463192;26;20007;-60
2024/04/12 09:28:22;;;;;;;156.40;20.05;;;13.80;91.00;;;;;;5460590;26;20024;-60
2024/04/12 09:33:36;;;;;;;118.40;16.23;;;13.90;90.70;;;;;;5461443;26;20014;-59
2024/04/12 09:36:06;;;;;;;286.55;32.85;;;13.90;90.60;;;;;;5399986;26;19998;-60
2024/04/12 09:38:39;;;;;;;140.40;18.77;;;13.90;90.60;;;;;;5460540;26;20010;-60
2024/04/12 09:41:27;;;;;;;143.60;18.95;;;13.90;90.60;;;;;;5460892;26;19998;-60
2024/04/12 09:43:54;;;;;;;220.32;22.70;;;14.00;90.70;;;;;;5461314;26;20098;-60
2024/04/12 09:46:36;;;;;;;168.88;19.70;;;14.00;90.60;;;;;;5487746;26;20010;-60
2024/04/12 10:38:44;;;;;;;84.05;13.43;;;14.70;90.20;;;;;;5450947;26;20137;-59
2024/04/12 10:41:10;;;;;;;75.97;12.35;;;14.70;90.20;;;;;;5444343;26;19999;-60
2024/04/12 10:43:36;;;;;;;98.00;13.35;;;14.80;90.20;;;;;;5448934;26;20142;-60
2024/04/12 10:46:04;;;;;;;109.65;13.55;;;14.80;90.20;;;;;;5463175;26;20037;-60
2024/04/12 10:48:33;;;;;;;82.90;13.35;;;14.90;90.20;;;;;;5425030;26;20006;-60
2024/04/12 10:51:00;;;;;;;103.97;12.55;;;14.90;90.00;;;;;;5437557;26;19995;-59
2024/04/12 10:53:29;;;;;;;106.55;15.52;;;15.00;89.90;;;;;;5468058;26;19999;-60
2024/04/12 10:55:55;;;;;;;95.05;14.20;;;15.10;89.70;;;;;;5404102;26;20018;-60
2024/04/12 10:58:27;;;;;;;83.35;13.65;;;15.10;89.60;;;;;;5432324;26;20003;-60
2024/04/12 11:00:55;;;;;;;91.40;13.55;;;15.20;89.60;;;;;;5425715;26;19999;-60
2024/04/12 11:03:24;;;;;;;86.60;11.20;;;15.20;89.50;;;;;;5457445;26;19995;-60
2024/04/12 11:05:50;;;;;;;70.07;10.90;;;15.30;89.20;;;;;;5439399;26;20451;-60
2024/04/12 11:08:15;;;;;;;102.57;13.63;;;15.30;89.10;;;;;;5429115;26;20010;-60
2024/04/12 11:10:54;;;;;;;112.40;14.00;;;15.40;89.10;;;;;;5460467;26;20006;-60
2024/04/12 11:13:28;;;;;;;122.07;14.15;;;15.40;89.10;;;;;;5411988;26;20038;-60
2024/04/12 11:32:13;;;;;;;92.32;12.45;;;16.00;86.40;;;;;;5432177;26;20021;-60
2024/04/12 11:34:42;;;;;;;83.65;11.80;;;16.10;86.20;;;;;;5450903;26;20002;-60
2024/04/12 11:37:13;;;;;;;80.47;10.90;;;16.20;86.00;;;;;;5435020;26;20109;-60
2024/04/12 11:39:41;;;;;;;81.80;12.05;;;16.20;85.70;;;;;;5432697;26;20119;-60
2024/04/12 11:42:07;;;;;;;72.47;9.73;;;16.30;85.50;;;;;;5410921;26;20007;-60
2024/04/12 11:44:33;;;;;;;62.53;11.52;;;16.40;85.20;;;;;;5460502;26;20009;-60
2024/04/12 11:47:02;;;;;;;72.70;10.82;;;16.50;85.10;;;;;;5458103;26;20010;-60
2024/04/12 11:49:30;;;;;;;89.72;11.52;;;16.50;85.00;;;;;;5463530;26;20228;-60
2024/04/12 11:51:57;;;;;;;73.78;10.20;;;16.60;84.60;;;;;;5464319;26;19991;-60
2024/04/12 11:54:29;;;;;;;77.50;10.70;;;16.70;83.90;;;;;;5462038;26;20126;-60
2024/04/12 11:56:57;;;;;;;69.00;9.40;;;16.80;83.50;;;;;;5459189;26;20003;-60
2024/04/12 11:59:27;;;;;;;83.32;9.77;;;16.80;83.10;;;;;;5460434;26;20056;-60
2024/04/12 12:02:00;;;;;;;70.65;9.70;;;16.90;82.70;;;;;;5429705;26;20107;-60
2024/04/12 12:04:28;;;;;;;65.40;9.23;;;17.00;82.60;;;;;;5429755;26;20018;-60
2024/04/12 12:07:03;;;;;;;56.25;8.18;;;17.10;82.60;;;;;;5481254;26;21209;-60
2024/04/12 12:09:36;;;;;;;70.30;9.63;;;17.20;82.90;;;;;;5433119;26;20078;-60
2024/04/12 12:12:03;;;;;;;74.15;9.43;;;17.20;83.00;;;;;;5431108;26;20679;-60
2024/04/12 12:14:29;;;;;;;113.68;15.55;;;17.30;82.90;;;;;;5427498;26;20486;-60
2024/04/12 12:16:57;;;;;;;88.40;10.88;;;17.30;82.60;;;;;;5428614;26;20469;-60
2024/04/12 12:19:23;;;;;;;65.80;10.32;;;17.40;82.60;;;;;;5427940;26;20013;-60
2024/04/12 12:21:49;;;;;;;105.07;13.98;;;17.50;82.40;;;;;;5448537;26;20010;-60
2024/04/12 12:24:15;;;;;;;207.57;21.25;;;17.60;82.00;;;;;;5473063;26;20020;-60
2024/04/12 12:26:40;;;;;;;121.80;15.15;;;17.70;81.80;;;;;;5456486;26;20003;-60
2024/04/12 12:29:06;;;;;;;181.02;18.23;;;17.80;81.60;;;;;;5433676;26;19999;-60
2024/04/12 12:31:32;;;;;;;147.13;15.55;;;17.90;81.40;;;;;;5495173;26;19996;-60
2024/04/12 12:33:58;;;;;;;138.52;14.93;;;18.00;81.00;;;;;;5442141;26;20127;-61
2024/04/12 12:36:25;;;;;;;143.05;14.82;;;18.10;80.90;;;;;;5457521;26;19999;-60
2024/04/12 12:38:51;;;;;;;130.43;15.50;;;18.20;80.50;;;;;;5452524;26;20112;-60
2024/04/12 12:41:17;;;;;;;189.23;19.05;;;18.30;80.50;;;;;;5416707;26;20077;-60
2024/04/12 12:43:44;;;;;;;216.38;22.48;;;18.40;80.30;;;;;;5443859;26;20442;-60
2024/04/12 12:46:13;;;;;;;133.32;16.15;;;18.40;80.00;;;;;;5421240;26;20009;-60
2024/04/12 12:48:39;;;;;;;170.52;15.90;;;18.60;79.20;;;;;;5432995;26;20058;-60
2024/04/12 12:51:08;;;;;;;153.55;16.60;;;18.60;79.10;;;;;;5427968;26;20042;-60
2024/04/12 12:53:34;;;;;;;168.68;17.17;;;18.60;78.90;;;;;;5469831;26;20007;-60
2024/04/12 12:56:00;;;;;;;172.93;19.88;;;18.70;78.70;;;;;;5444702;26;20010;-60
2024/04/12 12:58:26;;;;;;;164.90;17.98;;;18.80;78.50;;;;;;5451281;26;20006;-60
2024/04/12 13:00:52;;;;;;;171.68;19.55;;;18.80;78.00;;;;;;5441634;26;20054;-60
2024/04/12 13:03:25;;;;;;;193.48;20.65;;;18.80;77.80;;;;;;5461223;26;19994;-60
2024/04/12 13:05:52;;;;;;;170.70;20.88;;;18.90;77.60;;;;;;5447538;26;20006;-60
2024/04/12 13:08:19;;;;;;;245.93;24.48;;;19.00;77.90;;;;;;5468684;26;20022;-60
2024/04/12 13:10:53;;;;;;;239.15;25.67;;;19.10;78.70;;;;;;5460818;26;20009;-60
2024/04/12 13:13:21;;;;;;;231.90;25.00;;;19.20;78.00;;;;;;5477857;26;20366;-60
2024/04/12 13:15:54;;;;;;;220.70;20.52;;;19.20;77.20;;;;;;5441519;26;19998;-60
2024/04/12 13:18:28;;;;;;;196.68;21.77;;;19.40;77.30;;;;;;5462187;26;20049;-60
2024/04/12 13:20:55;;;;;;;198.88;22.45;;;19.40;76.70;;;;;;5425060;26;19994;-60
2024/04/12 13:23:25;;;;;;;203.88;23.20;;;19.50;76.70;;;;;;5428280;26;20299;-60
2024/04/12 13:25:54;;;;;;;220.48;22.60;;;19.60;76.80;;;;;;5420175;26;20003;-60
2024/04/12 13:28:19;;;;;;;203.20;21.15;;;19.70;76.80;;;;;;5443297;26;20006;-60
2024/04/12 13:30:47;;;;;;;168.93;18.88;;;19.70;76.60;;;;;;5458936;26;20006;-60
2024/04/12 13:33:14;;;;;;;173.60;18.88;;;19.80;75.70;;;;;;5446419;26;20003;-60
2024/04/12 13:35:43;;;;;;;187.48;20.73;;;19.80;75.40;;;;;;5456778;26;20014;-60
2024/04/12 13:38:12;;;;;;;206.40;21.10;;;19.90;75.30;;;;;;5458248;26;20090;-60
2024/04/12 13:40:49;;;;;;;187.95;20.10;;;20.10;75.20;;;;;;5456962;26;20003;-60
2024/04/12 13:43:15;;;;;;;168.18;21.08;;;20.10;74.70;;;;;;5450506;26;20099;-60
2024/04/12 13:51:20;;;;;;;167.30;18.73;;;20.40;73.90;;;;;;5461727;26;20026;-60
2024/04/12 13:53:50;;;;;;;230.48;23.15;;;20.50;74.00;;;;;;5445678;26;20014;-60
2024/04/12 13:58:59;;;;;;;227.57;24.93;;;20.70;73.40;;;;;;5455867;26;20036;-60
2024/04/12 14:01:26;;;;;;;192.82;21.83;;;20.80;73.40;;;;;;5440109;26;20141;-61
2024/04/12 14:03:53;;;;;;;226.27;22.63;;;20.90;73.40;;;;;;5469508;26;20044;-61
2024/04/12 14:06:25;;;;;;;262.25;26.63;;;21.00;73.20;;;;;;5433103;26;19999;-60
2024/04/12 14:08:55;;;;;;;225.50;23.80;;;21.00;73.10;;;;;;5453557;26;20043;-60
2024/04/12 14:11:24;;;;;;;220.75;24.33;;;21.10;72.70;;;;;;5432512;26;19999;-61
2024/04/12 14:13:49;;;;;;;246.23;25.83;;;21.20;72.20;;;;;;5436068;26;20021;-61